INGA4: Red River, Index, AR

                                SHEF ID:       INGA4     Red River at Index, AR
STATION TYPE: Stream Gauge
Regulating: Stage = 19.80, Flow = 104273

PRECIP STAGE RIV-FLOW WTR-TEMP BAT-LOAD
in ft cfs F volt
Ccp-Rev Ccp-Rev Ccp-Rev Ccp-Rev Ccp-Rev
(America/Chicago)
02/19 00:00 0.00 3.01 9946 60.98 12.70
02/19 01:00 0.00 3.04 10060 60.87 12.69
02/19 02:00 0.00 3.07 10175 60.80 12.67
02/19 03:00 0.00 3.09 10252 60.71 12.65
02/19 04:00 0.00 3.10 10290 60.64 12.63
02/19 05:00 0.00 3.13 10406 60.58 12.62
02/19 06:00 0.00 3.13 10406 60.58 12.61
02/19 07:00 0.00 3.13 10406 60.57 12.60
02/19 08:00 0.00 3.13 10406 60.58 12.59
02/19 09:00 0.00 3.13 10406 60.62 13.29
02/19 10:00 0.00 3.12 10368 60.69 13.62
02/19 11:00 0.00 3.11 10329 60.87 13.68
02/19 12:00 0.00 3.12 10368 61.12 13.64
02/19 13:00 0.00 3.10 10290 61.47 13.56
02/19 14:00 0.00 3.08 10214 61.83 13.43
02/19 15:00 0.00 3.06 10137 62.13 13.36
02/19 16:00 0.00 3.04 10060 62.37 13.23
02/19 17:00 0.00 3.02 9984 62.55 13.19
02/19 18:00 0.00 2.99 9870 62.64 13.12
02/19 19:00 0.00 2.96 9756 62.62 12.90
02/19 20:00 0.00 2.94 9680 62.56 12.77
02/19 21:00 0.00 2.91 9567 62.46 12.74
02/19 22:00 0.00 2.88 9454 62.29 12.73
02/19 23:00 0.00 2.86 9379 62.08 12.71
Data processed at Fri 20Feb2026 05:11 GMT

NOTICE: If you are parsing this page

Please convert to using our Data API. Starting early 2026 we will be migrating to: https://water.usace.army.mil with modern pages rendered in JavaScript. When this migration completes you will no longer be able to scrape this page! CWMSDataAPI (CDA)

Timeseries IDs (TSIDs)

TSIDs used from left to right in the data table
INDX.Precip-Inc.Total.1Hour.1Hour.Ccp-Rev
INDX.Stage.Inst.1Hour.0.Ccp-Rev
INDX.Flow.Inst.1Hour.0.Ccp-Rev
INDX.Temp-Water.Inst.1Hour.0.Ccp-Rev
INDX.Volt-Battery Load.Inst.1Hour.0.Ccp-Rev

                            

All information presented herein is the property of the government of the United States of America and may be revised or deleted at any time without prior notice. Dissemination of this information without the expressed written consent of the Public Affairs Office, Tulsa District U.S. Army Corps of Engineers is strictly prohibited. These data are gathered electronically and, as presented, have NOT undergone any form of quality control. These data are NOT guaranteed to be valid or correct.